Time;durP1;ratioP1;P1;durP2;ratioP2;P2;SDS_P1;SDS_P2;PMS_P1;PMS_P2;Temp;Humidity;BMP_temperature;BMP_pressure;BME280_temperature;BME280_humidity;BME280_pressure;Samples;Min_cycle;Max_cycle;Signal;HPM_P1;HPM_P2
2024/01/08 00:09:03;;;;;;;;;;;;;;;;;;;;;
2024/01/08 00:59:26;;;;;;;11.87;5.53;;;-1.90;99.90;;;;;;4935991;29;20069;-95
2024/01/08 01:01:58;;;;;;;13.20;5.15;;;-4.00;99.90;;;;;;4920084;29;20056;-95
2024/01/08 01:08:39;;;;;;;12.17;5.10;;;-4.40;99.90;;;;;;4935819;29;20056;-96
2024/01/08 01:11:52;;;;;;;11.93;5.10;;;-3.60;99.90;;;;;;4909946;29;20044;-96
2024/01/08 01:15:07;;;;;;;;;;;;;;;;;;;;;
2024/01/08 01:18:13;;;;;;;12.77;5.13;;;-2.50;99.90;;;;;;4919180;29;20048;-96
2024/01/08 01:28:02;;;;;;;11.50;4.90;;;-2.40;99.90;;;;;;4821587;29;20074;-96
2024/01/08 01:34:17;;;;;;;12.43;4.90;;;-1.40;99.90;;;;;;4807522;30;20058;-96
2024/01/08 01:37:11;;;;;;;13.60;5.20;;;-2.80;99.90;;;;;;4748056;30;20060;-96
2024/01/08 01:50:37;;;;;;;13.63;5.00;;;-2.70;99.90;;;;;;5169169;23;20107;-96
2024/01/08 01:57:12;;;;;;;14.00;5.37;;;-3.20;99.90;;;;;;4922786;29;20119;-95
2024/01/08 01:59:55;;;;;;;12.27;5.23;;;-3.30;99.90;;;;;;4915932;29;20044;-96
2024/01/08 02:03:00;;;;;;;12.63;5.80;;;-3.10;99.90;;;;;;4923625;29;20042;-96
2024/01/08 02:06:29;;;;;;;14.43;5.83;;;-1.60;99.90;;;;;;4827811;29;20062;-96
2024/01/08 02:08:56;;;;;;;;;;;0.20;99.90;;;;;;4827151;29;20081;-96
2024/01/08 02:20:57;;;;;;;11.67;5.00;;;-2.50;99.90;;;;;;5048811;23;20139;-96
2024/01/08 02:23:53;;;;;;;13.63;6.00;;;-2.20;99.90;;;;;;4921811;29;20067;-96
2024/01/08 02:29:19;;;;;;;11.90;5.40;;;-2.40;99.90;;;;;;4983760;23;20052;-96
2024/01/08 02:32:28;;;;;;;19.10;6.37;;;-1.20;99.90;;;;;;4928087;29;20056;-96
2024/01/08 02:35:33;;;;;;;15.17;6.13;;;-1.20;99.90;;;;;;4935933;29;20118;-96
2024/01/08 02:38:17;;;;;;;;;;;-1.20;99.90;;;;;;4865187;29;20057;-96
2024/01/08 02:41:45;;;;;;;12.60;5.93;;;-0.70;99.90;;;;;;4881358;29;20023;-96
2024/01/08 03:12:54;;;;;;;16.30;6.17;;;;;;;;;;4930545;29;20036;-96
2024/01/08 03:15:41;;;;;;;15.17;6.30;;;-2.20;99.90;;;;;;4920821;29;20055;-96
2024/01/08 03:18:19;;;;;;;14.30;6.30;;;-2.40;99.90;;;;;;4923721;29;20027;-96
2024/01/08 03:24:40;;;;;;;14.70;6.63;;;-2.00;99.90;;;;;;5565867;23;20056;-96
2024/01/08 03:27:17;;;;;;;12.73;5.53;;;-1.90;99.90;;;;;;4920958;29;20028;-96
2024/01/08 03:29:55;;;;;;;13.50;6.10;;;-0.90;99.90;;;;;;4919351;29;20055;-96
2024/01/08 04:01:01;;;;;;;13.00;5.20;;;-2.00;99.90;;;;;;4952862;29;20051;-96
2024/01/08 04:03:43;;;;;;;13.00;5.77;;;-1.60;99.90;;;;;;4955383;29;20142;-96
2024/01/08 04:09:29;;;;;;;13.20;5.60;;;-1.70;99.90;;;;;;4956065;29;20050;-96
2024/01/08 04:12:05;;;;;;;11.63;5.13;;;-2.10;99.90;;;;;;4945320;29;20063;-96
2024/01/08 04:15:32;;;;;;;12.53;5.30;;;-1.70;99.90;;;;;;4890921;29;20124;-96
2024/01/08 04:18:49;;;;;;;14.93;5.97;;;-0.80;99.90;;;;;;4878429;29;20097;-96
2024/01/08 04:44:46;;;;;;;11.53;5.00;;;-2.00;99.90;;;;;;6042883;23;20214;31
2024/01/08 05:06:16;;;;;;;11.23;4.67;;;-2.10;99.90;;;;;;5295304;23;20070;-96
2024/01/08 05:09:51;;;;;;;10.83;4.43;;;-1.00;99.90;;;;;;4944456;29;20045;-96
2024/01/08 06:33:22;;;;;;;12.93;6.23;;;-2.20;99.90;;;;;;5079321;23;20064;-93
2024/01/08 06:35:50;;;;;;;13.03;5.40;;;-2.20;99.90;;;;;;4899485;29;20497;-93
2024/01/08 06:38:22;;;;;;;11.83;5.30;;;-2.10;99.90;;;;;;4900555;29;20101;-94
2024/01/08 06:41:20;;;;;;;13.27;5.80;;;-2.30;99.90;;;;;;4905711;29;20066;-95
2024/01/08 06:43:56;;;;;;;13.80;6.20;;;-1.00;99.90;;;;;;4881570;29;20072;-91
2024/01/08 06:46:24;;;;;;;13.10;5.10;;;-2.30;99.90;;;;;;4900742;29;20044;-92
2024/01/08 06:48:57;;;;;;;11.60;5.30;;;-0.80;99.90;;;;;;4899994;29;20047;-90
2024/01/08 06:51:23;;;;;;;15.00;5.80;;;-2.50;99.90;;;;;;4898741;29;20052;-87
2024/01/08 06:53:49;;;;;;;11.80;5.20;;;-2.30;99.90;;;;;;4903961;29;20059;-93
2024/01/08 06:56:15;;;;;;;11.73;5.17;;;-2.20;99.90;;;;;;4900756;29;20044;-92
2024/01/08 06:58:40;;;;;;;12.73;5.63;;;-2.20;99.90;;;;;;4901934;29;20183;-93
2024/01/08 07:01:06;;;;;;;11.70;5.20;;;-2.20;99.90;;;;;;4900946;29;20131;-90
2024/01/08 07:03:32;;;;;;;13.53;5.97;;;-0.80;99.90;;;;;;4899571;29;20047;-92
2024/01/08 07:06:05;;;;;;;11.60;5.20;;;-2.20;99.90;;;;;;4901325;29;20063;-90
2024/01/08 07:08:31;;;;;;;14.02;5.93;;;-2.20;99.90;;;;;;4901591;29;20408;-93
2024/01/08 07:10:57;;;;;;;13.97;5.20;;;-2.10;99.90;;;;;;4899956;29;20076;-92
2024/01/08 07:13:23;;;;;;;14.83;4.77;;;-0.70;99.90;;;;;;4900833;29;20056;-93
2024/01/08 07:15:58;;;;;;;13.00;5.30;;;-1.70;99.90;;;;;;4902226;29;20099;-93
2024/01/08 07:18:30;;;;;;;12.63;5.40;;;-2.10;99.90;;;;;;4901530;29;20050;-94
2024/01/08 07:21:22;;;;;;;13.03;5.30;;;-2.10;99.90;;;;;;4900638;29;20044;-94
2024/01/08 07:23:58;;;;;;;12.63;5.50;;;-3.10;99.90;;;;;;4900881;29;20507;-93
2024/01/08 07:26:42;;;;;;;13.33;5.37;;;-1.00;99.90;;;;;;4901443;29;20044;-95
2024/01/08 07:29:17;;;;;;;11.97;5.43;;;-0.50;99.90;;;;;;4900991;29;20135;-94
2024/01/08 07:31:43;;;;;;;11.80;5.10;;;;;;;;;;4900088;29;20122;-92
2024/01/08 07:34:09;;;;;;;12.23;5.37;;;-2.00;99.90;;;;;;4899340;29;20056;-89
2024/01/08 07:36:35;;;;;;;13.07;5.30;;;-2.30;99.90;;;;;;4916406;29;20063;-87
2024/01/08 07:39:01;;;;;;;14.20;5.57;;;-2.00;99.90;;;;;;4898916;29;20051;-88
2024/01/08 07:41:27;;;;;;;13.20;5.30;;;-2.00;99.90;;;;;;4898767;29;20047;-87
2024/01/08 07:43:53;;;;;;;12.30;5.57;;;-0.50;99.90;;;;;;4897243;29;20119;-87
2024/01/08 07:46:18;;;;;;;12.63;5.67;;;-2.00;99.90;;;;;;4898630;29;20560;-88
2024/01/08 07:48:44;;;;;;;11.70;5.23;;;-2.00;99.90;;;;;;4898773;29;20051;-87
2024/01/08 07:51:10;;;;;;;13.13;5.50;;;-2.00;99.90;;;;;;4892525;29;20064;-87
2024/01/08 07:53:36;;;;;;;12.87;5.50;;;-2.00;99.90;;;;;;4899218;29;20402;-87
2024/01/08 07:56:03;;;;;;;12.77;5.70;;;-0.70;99.90;;;;;;4908647;29;20095;-87
2024/01/08 07:58:29;;;;;;;12.37;5.50;;;-1.90;99.90;;;;;;4917777;29;20051;-87
2024/01/08 08:00:54;;;;;;;12.33;5.67;;;-1.90;99.90;;;;;;4914487;29;20412;-87
2024/01/08 08:03:20;;;;;;;12.67;5.60;;;0.10;99.90;;;;;;4915154;29;20048;-88
2024/01/08 08:05:46;;;;;;;14.27;5.70;;;-1.90;99.90;;;;;;4904771;29;20063;-88
2024/01/08 08:08:12;;;;;;;11.33;5.43;;;-1.80;99.90;;;;;;4915827;29;20526;-88
2024/01/08 08:10:38;;;;;;;10.87;4.90;;;-1.90;99.90;;;;;;4900509;29;20131;-87
2024/01/08 08:13:03;;;;;;;11.30;4.63;;;-0.50;99.90;;;;;;4898332;29;20127;-87
2024/01/08 08:15:29;;;;;;;12.13;5.30;;;-1.80;99.90;;;;;;4903024;29;20066;-87
2024/01/08 08:17:55;;;;;;;11.10;4.90;;;-1.40;99.90;;;;;;4917503;29;20055;-88
2024/01/08 08:20:22;;;;;;;12.10;5.00;;;-1.80;99.90;;;;;;4913092;29;20112;-87
2024/01/08 08:22:48;;;;;;;11.60;4.67;;;-1.70;99.90;;;;;;4898598;29;20123;-87
2024/01/08 08:25:14;;;;;;;11.40;4.47;;;-1.70;99.90;;;;;;4900751;29;20131;-87
2024/01/08 08:27:40;;;;;;;10.83;4.70;;;-1.70;99.90;;;;;;4917770;29;20564;-87
2024/01/08 08:30:08;;;;;;;11.47;4.40;;;-1.70;99.90;;;;;;4917626;29;20496;-87
2024/01/08 08:32:33;;;;;;;12.27;4.53;;;-1.60;99.90;;;;;;4906641;29;20047;-87
2024/01/08 08:35:00;;;;;;;11.17;4.60;;;-1.60;99.90;;;;;;4897528;29;20056;-87
2024/01/08 08:37:25;;;;;;;11.67;4.13;;;-1.60;99.90;;;;;;4917229;29;20055;-87
2024/01/08 08:39:51;;;;;;;11.07;4.50;;;-1.60;99.90;;;;;;4918079;29;20054;-87
2024/01/08 08:42:17;;;;;;;11.63;4.40;;;-0.20;99.90;;;;;;4917027;29;20048;-87
2024/01/08 08:44:42;;;;;;;10.27;3.87;;;-1.50;99.90;;;;;;4899525;29;20036;-87
2024/01/08 08:47:08;;;;;;;12.23;4.67;;;-1.50;99.90;;;;;;4898230;29;20075;-86
2024/01/08 08:49:33;;;;;;;10.90;3.63;;;-1.50;99.90;;;;;;4899105;29;20127;-88
2024/01/08 08:51:59;;;;;;;12.70;4.43;;;-1.40;99.90;;;;;;4897010;29;20053;-85
2024/01/08 08:54:25;;;;;;;11.10;4.10;;;-1.40;99.90;;;;;;4898469;29;20055;-88
2024/01/08 08:56:50;;;;;;;12.67;4.33;;;-1.40;99.90;;;;;;4898736;29;20073;-90
2024/01/08 08:59:16;;;;;;;9.93;4.20;;;-1.40;99.90;;;;;;4901662;29;20111;-89
2024/01/08 09:01:41;;;;;;;10.87;3.80;;;-1.40;99.90;;;;;;4901488;29;20135;-88
2024/01/08 09:04:07;;;;;;;12.23;4.40;;;-1.40;99.90;;;;;;4902145;29;20400;-88
2024/01/08 09:06:34;;;;;;;10.30;4.73;;;-1.40;99.90;;;;;;4902310;29;20064;-88
2024/01/08 09:09:00;;;;;;;11.37;4.47;;;-1.30;99.90;;;;;;4901128;29;20436;-88
2024/01/08 09:11:27;;;;;;;11.80;4.73;;;-1.30;99.90;;;;;;4902407;29;20346;-89
2024/01/08 09:13:53;;;;;;;11.40;4.23;;;-1.30;99.90;;;;;;4901930;29;20040;-88
2024/01/08 09:16:18;;;;;;;10.60;4.50;;;-1.30;99.90;;;;;;4901381;29;20507;-89
2024/01/08 09:18:45;;;;;;;10.17;4.23;;;-1.30;99.90;;;;;;4902353;29;20051;-88
2024/01/08 09:21:11;;;;;;;13.17;4.43;;;-1.30;99.90;;;;;;4901725;29;20044;-89
2024/01/08 09:23:38;;;;;;;9.83;4.33;;;-1.20;99.90;;;;;;4901451;29;20063;-88
2024/01/08 09:26:04;;;;;;;12.10;4.40;;;-1.20;99.90;;;;;;4901787;29;20056;-88
2024/01/08 09:28:30;;;;;;;10.47;4.37;;;-1.20;99.90;;;;;;4901876;29;20129;-88
2024/01/08 09:30:56;;;;;;;10.70;4.50;;;-1.20;99.90;;;;;;4900801;29;20097;-89
2024/01/08 09:33:21;;;;;;;12.30;4.40;;;-1.20;99.90;;;;;;4901672;29;20468;-89
2024/01/08 09:35:47;;;;;;;11.57;4.33;;;-1.10;99.90;;;;;;4901590;29;20056;-89
2024/01/08 09:38:13;;;;;;;11.70;4.47;;;-1.10;99.90;;;;;;4900874;29;20048;-89
2024/01/08 09:40:41;;;;;;;10.50;4.27;;;-1.10;99.90;;;;;;4901779;29;20056;-88
2024/01/08 09:43:08;;;;;;;10.97;4.57;;;-1.10;99.90;;;;;;4901312;29;20040;-89
2024/01/08 09:45:33;;;;;;;10.10;4.60;;;-1.10;99.90;;;;;;4901115;29;20094;-88
2024/01/08 09:47:59;;;;;;;10.20;4.00;;;-1.10;99.90;;;;;;4901046;29;20130;-88
2024/01/08 09:50:28;;;;;;;10.10;4.10;;;-1.10;99.90;;;;;;4901020;29;20048;-88
2024/01/08 09:52:55;;;;;;;10.93;4.33;;;-1.10;99.90;;;;;;4901065;29;20063;-88
2024/01/08 09:55:21;;;;;;;9.67;3.93;;;-1.10;99.90;;;;;;4901396;29;20084;-88
2024/01/08 09:57:47;;;;;;;10.83;3.60;;;-1.10;99.90;;;;;;4900790;29;20138;-88
2024/01/08 10:00:14;;;;;;;12.03;4.77;;;-1.10;99.90;;;;;;4900726;29;20044;-88
2024/01/08 10:02:40;;;;;;;10.63;4.27;;;-1.00;99.90;;;;;;4901190;29;20059;-89
2024/01/08 10:05:07;;;;;;;11.77;4.30;;;-1.00;99.90;;;;;;4900329;29;20095;-88
2024/01/08 10:07:36;;;;;;;14.20;4.53;;;-1.00;99.90;;;;;;4900929;29;20560;-89
2024/01/08 10:10:03;;;;;;;9.23;4.07;;;-1.00;99.90;;;;;;4900122;29;20045;-88
2024/01/08 10:12:32;;;;;;;10.93;4.50;;;-1.00;99.90;;;;;;4900395;29;20048;-89
2024/01/08 10:14:58;;;;;;;10.40;4.23;;;-1.00;99.90;;;;;;4900485;29;20048;-90
2024/01/08 10:17:23;;;;;;;11.40;4.27;;;-1.00;99.90;;;;;;4900966;29;20437;-88
2024/01/08 10:19:49;;;;;;;13.07;4.33;;;-1.00;99.90;;;;;;4900244;29;20070;-88
2024/01/08 10:22:15;;;;;;;10.17;4.17;;;-1.00;99.90;;;;;;4900359;29;20044;-89
2024/01/08 10:24:42;;;;;;;10.23;4.20;;;-1.10;99.90;;;;;;4900740;29;20449;-89
2024/01/08 10:27:08;;;;;;;10.57;4.50;;;-1.00;99.90;;;;;;4899776;29;20052;-89
2024/01/08 10:29:35;;;;;;;10.83;4.27;;;-1.00;99.90;;;;;;4900405;29;20040;-89
2024/01/08 10:32:01;;;;;;;11.97;4.90;;;-1.00;99.90;;;;;;4900665;29;20075;-89
2024/01/08 10:34:28;;;;;;;10.33;4.30;;;-0.90;99.90;;;;;;4899685;29;20099;-89
2024/01/08 10:36:55;;;;;;;10.17;4.27;;;-1.00;99.90;;;;;;4900415;29;20050;-89
2024/01/08 10:39:22;;;;;;;10.73;4.60;;;-1.00;99.90;;;;;;4900704;29;20126;-89
2024/01/08 10:41:48;;;;;;;11.13;4.73;;;-1.00;99.90;;;;;;4899738;29;20096;-89
2024/01/08 10:44:14;;;;;;;10.20;4.37;;;0.10;99.90;;;;;;4900076;29;20048;-88
2024/01/08 10:46:57;;;;;;;10.63;4.47;;;-0.80;99.90;;;;;;4899697;29;20106;-88
2024/01/08 10:49:31;;;;;;;11.03;4.17;;;-0.70;99.90;;;;;;4900431;29;20086;-89
2024/01/08 10:51:59;;;;;;;10.40;4.20;;;-0.60;99.90;;;;;;4899932;29;20075;-89
2024/01/08 10:54:36;;;;;;;10.83;4.17;;;-0.50;99.90;;;;;;4899377;29;20127;-89
2024/01/08 10:57:05;;;;;;;10.53;4.60;;;-0.60;99.90;;;;;;4899818;29;20098;-86
2024/01/08 10:59:32;;;;;;;10.43;3.87;;;-0.60;99.90;;;;;;4899650;29;20135;-86
2024/01/08 11:01:57;;;;;;;11.27;4.30;;;-0.50;99.90;;;;;;4898471;29;20444;-86
2024/01/08 11:04:23;;;;;;;10.17;4.10;;;-0.50;99.90;;;;;;4900339;29;20106;-86
2024/01/08 11:06:50;;;;;;;12.03;4.20;;;-0.50;99.90;;;;;;4900162;29;20050;-86
2024/01/08 11:09:26;;;;;;;11.10;3.63;;;-0.50;99.90;;;;;;4901077;29;20048;-88
2024/01/08 11:11:54;;;;;;;9.37;3.80;;;0.70;99.90;;;;;;4905251;29;20052;-87
2024/01/08 11:14:20;;;;;;;8.83;3.53;;;-0.50;99.90;;;;;;4898193;29;20049;-87
2024/01/08 11:16:46;;;;;;;10.40;3.83;;;-0.50;99.90;;;;;;4898840;29;20054;-88
2024/01/08 11:19:17;;;;;;;10.13;3.87;;;-0.60;99.90;;;;;;4898941;29;20078;-88
2024/01/08 11:21:43;;;;;;;9.13;3.40;;;-0.60;99.90;;;;;;4898373;29;20497;-88
2024/01/08 11:24:09;;;;;;;8.93;3.60;;;-0.80;99.90;;;;;;4898565;29;20076;-88
2024/01/08 11:26:47;;;;;;;9.83;3.80;;;-0.80;99.90;;;;;;4898848;29;20134;-88
2024/01/08 11:29:14;;;;;;;9.60;3.83;;;-0.80;99.90;;;;;;4898616;29;20071;-88
2024/01/08 11:31:46;;;;;;;8.47;3.30;;;-0.70;99.90;;;;;;4900074;29;20056;-89
2024/01/08 11:34:42;;;;;;;9.43;3.90;;;-0.70;99.90;;;;;;4899356;29;20060;-89
2024/01/08 11:37:19;;;;;;;9.80;3.60;;;-0.60;99.90;;;;;;4898555;29;20206;-89
2024/01/08 11:39:48;;;;;;;9.97;3.73;;;-0.40;99.90;;;;;;4899598;29;20052;-91
2024/01/08 11:42:15;;;;;;;11.20;3.90;;;-0.40;99.90;;;;;;4899019;29;20138;-90
2024/01/08 11:44:41;;;;;;;11.37;3.70;;;-0.40;99.90;;;;;;4898745;29;20048;-87
2024/01/08 11:47:07;;;;;;;11.97;4.60;;;0.00;99.90;;;;;;4899421;29;20472;-87
2024/01/08 11:49:32;;;;;;;8.87;3.70;;;-0.40;99.90;;;;;;4899396;29;20040;-88
2024/01/08 11:52:01;;;;;;;10.67;4.03;;;-0.30;99.90;;;;;;4897829;29;20044;-88
2024/01/08 11:54:27;;;;;;;10.23;3.67;;;-0.20;99.90;;;;;;4899289;29;20052;-90
2024/01/08 11:56:53;;;;;;;10.70;3.70;;;-0.10;99.90;;;;;;4899409;29;20143;-88
2024/01/08 11:59:39;;;;;;;10.33;3.93;;;0.00;99.90;;;;;;4898339;29;20095;-88
2024/01/08 12:02:11;;;;;;;9.80;3.80;;;0.00;99.90;;;;;;4898431;29;20500;-87
2024/01/08 12:04:37;;;;;;;11.43;4.20;;;0.00;99.90;;;;;;4898015;29;20048;-89
2024/01/08 12:07:03;;;;;;;11.03;4.40;;;0.00;99.90;;;;;;4898899;29;20071;-89
2024/01/08 12:09:32;;;;;;;10.90;3.83;;;-0.10;99.90;;;;;;4899030;29;20048;-89
2024/01/08 12:12:05;;;;;;;10.73;4.03;;;-0.20;99.90;;;;;;4898297;29;20497;-88
2024/01/08 12:14:32;;;;;;;9.95;3.85;;;-0.20;99.90;;;;;;4899211;29;20156;-88
2024/01/08 12:16:58;;;;;;;11.67;3.53;;;-0.20;99.90;;;;;;4899105;29;20429;-89
2024/01/08 12:19:41;;;;;;;11.20;3.97;;;-0.40;99.90;;;;;;4898504;29;20051;-89
2024/01/08 12:22:12;;;;;;;9.30;3.90;;;-0.40;99.90;;;;;;4899027;29;20445;-89
2024/01/08 12:24:42;;;;;;;10.33;4.10;;;-0.40;99.90;;;;;;4899606;29;20316;-88
2024/01/08 12:27:08;;;;;;;10.37;3.80;;;-0.50;99.90;;;;;;4898624;29;20071;-88
2024/01/08 12:29:39;;;;;;;11.33;3.90;;;-0.50;99.90;;;;;;4899543;29;20092;-89
2024/01/08 12:32:06;;;;;;;10.37;4.43;;;-0.50;99.90;;;;;;4900296;29;20048;-88
2024/01/08 12:34:33;;;;;;;9.43;3.73;;;-0.40;99.90;;;;;;4902226;29;20060;-88
2024/01/08 12:37:00;;;;;;;9.67;3.77;;;-0.40;99.90;;;;;;4902510;29;20071;-88
2024/01/08 12:39:29;;;;;;;13.07;4.27;;;-0.40;99.90;;;;;;4902021;29;20048;-88
2024/01/08 12:41:58;;;;;;;9.90;3.97;;;-0.40;99.90;;;;;;4902405;29;20050;-88
2024/01/08 12:44:33;;;;;;;11.07;4.07;;;-0.30;99.90;;;;;;4902629;29;20503;-88
2024/01/08 12:47:00;;;;;;;10.97;4.43;;;-0.30;99.90;;;;;;4901431;29;20515;-89
2024/01/08 12:49:26;;;;;;;9.77;3.93;;;-0.20;99.90;;;;;;4902724;29;20484;-89
2024/01/08 12:51:54;;;;;;;9.93;4.20;;;-0.20;99.90;;;;;;4901988;29;20051;-90
2024/01/08 12:54:20;;;;;;;9.90;3.90;;;-0.10;99.90;;;;;;4901593;29;20515;-89
2024/01/08 12:56:46;;;;;;;11.30;3.80;;;-0.10;99.90;;;;;;4902638;29;20044;-88
2024/01/08 12:59:14;;;;;;;10.50;4.00;;;-0.10;99.90;;;;;;4902079;29;20054;-87
2024/01/08 13:01:45;;;;;;;11.80;4.17;;;0.00;99.90;;;;;;4901419;29;20059;-87
2024/01/08 13:04:14;;;;;;;11.33;4.20;;;0.00;99.90;;;;;;4899461;29;20463;-89
2024/01/08 13:06:40;;;;;;;10.33;3.97;;;0.00;99.90;;;;;;4901783;29;20064;-88
2024/01/08 13:09:09;;;;;;;9.80;4.00;;;0.10;99.90;;;;;;4899624;29;20099;-89
2024/01/08 13:11:35;;;;;;;11.87;4.40;;;0.10;99.90;;;;;;4902033;29;20148;-88
2024/01/08 13:14:04;;;;;;;9.93;3.93;;;0.20;99.90;;;;;;4901812;29;20477;-89
2024/01/08 13:16:30;;;;;;;9.63;4.03;;;0.20;99.90;;;;;;4914964;29;20086;-89
2024/01/08 13:18:55;;;;;;;10.13;4.13;;;0.20;99.90;;;;;;4920705;29;20075;-87
2024/01/08 13:21:21;;;;;;;11.57;4.10;;;0.30;99.90;;;;;;4920430;29;20550;-88
2024/01/08 13:23:47;;;;;;;10.97;4.27;;;0.30;99.90;;;;;;4920646;29;20051;-89
2024/01/08 13:26:13;;;;;;;10.07;4.23;;;0.50;99.90;;;;;;4920734;29;20464;-88
2024/01/08 13:28:42;;;;;;;10.23;4.30;;;0.50;99.90;;;;;;4919749;29;20050;-88
2024/01/08 13:31:08;;;;;;;9.97;4.30;;;0.40;99.90;;;;;;4920283;29;20131;-88
2024/01/08 13:33:37;;;;;;;10.73;4.30;;;0.40;99.90;;;;;;4920252;29;20056;-90
2024/01/08 13:36:04;;;;;;;12.33;4.67;;;0.40;99.90;;;;;;4933338;29;20044;-89
2024/01/08 13:38:31;;;;;;;10.47;4.40;;;0.50;99.90;;;;;;4900881;29;20123;-87
2024/01/08 13:40:58;;;;;;;10.43;4.37;;;0.40;99.90;;;;;;4901102;29;20040;-89
2024/01/08 13:43:27;;;;;;;11.03;4.30;;;0.40;99.90;;;;;;4899915;29;20058;-87
2024/01/08 13:45:56;;;;;;;12.63;4.43;;;0.40;99.90;;;;;;4901103;29;20108;-88
2024/01/08 13:48:22;;;;;;;10.93;4.60;;;0.30;99.90;;;;;;4901590;29;20056;-87
2024/01/08 13:50:48;;;;;;;9.87;4.27;;;0.20;99.90;;;;;;4900720;29;20051;-87
2024/01/08 13:53:14;;;;;;;11.40;4.40;;;0.20;99.90;;;;;;4901148;29;20139;-87
2024/01/08 13:55:41;;;;;;;13.87;5.20;;;0.10;99.90;;;;;;4901846;29;20051;-87
2024/01/08 13:58:08;;;;;;;12.30;4.93;;;0.10;99.90;;;;;;4900384;29;20111;-88
2024/01/08 14:00:33;;;;;;;11.47;4.60;;;0.20;99.90;;;;;;4901078;29;20055;-89
2024/01/08 14:03:00;;;;;;;10.57;4.07;;;0.00;99.90;;;;;;4901126;29;20052;-89
2024/01/08 14:05:26;;;;;;;12.77;5.10;;;-0.20;99.90;;;;;;4897020;29;20050;-89
2024/01/08 14:07:54;;;;;;;12.57;4.40;;;0.00;99.90;;;;;;4900799;29;20044;-89
2024/01/08 14:10:20;;;;;;;10.53;4.60;;;-0.10;99.90;;;;;;4908827;29;20040;-89
2024/01/08 14:12:46;;;;;;;11.17;4.23;;;-0.10;99.90;;;;;;4919106;29;20102;-87
2024/01/08 14:15:13;;;;;;;9.83;4.00;;;-0.20;99.90;;;;;;4919392;29;20353;-88
2024/01/08 14:17:41;;;;;;;9.17;3.70;;;-0.30;99.90;;;;;;4919171;29;20051;-88
2024/01/08 14:20:13;;;;;;;10.43;3.93;;;-0.40;99.90;;;;;;4919211;29;20040;-88
2024/01/08 14:22:39;;;;;;;9.00;3.53;;;-0.50;99.90;;;;;;4919263;29;20051;-88
2024/01/08 14:25:09;;;;;;;11.87;4.27;;;-0.50;99.90;;;;;;4918286;29;20050;-87
2024/01/08 14:27:35;;;;;;;9.77;3.93;;;-0.60;99.90;;;;;;4919707;29;20044;-87
2024/01/08 14:30:03;;;;;;;11.57;3.87;;;-0.70;99.90;;;;;;4919096;29;20046;-88
2024/01/08 14:32:32;;;;;;;12.33;4.20;;;-0.70;99.90;;;;;;4919208;29;20054;-88
2024/01/08 14:34:58;;;;;;;10.00;3.87;;;-0.80;99.90;;;;;;4918974;29;20047;-87
2024/01/08 14:37:26;;;;;;;10.97;3.83;;;-0.80;99.90;;;;;;4919350;29;20048;-87
2024/01/08 14:39:52;;;;;;;9.80;3.90;;;-0.90;99.90;;;;;;4918470;29;20160;-88
2024/01/08 14:42:17;;;;;;;10.23;3.77;;;-1.00;99.90;;;;;;4919157;29;20044;-88
2024/01/08 14:44:43;;;;;;;9.33;4.00;;;-1.00;99.90;;;;;;4919078;29;20044;-88
2024/01/08 14:47:09;;;;;;;10.20;4.27;;;-1.00;99.90;;;;;;4918188;29;20730;-88
2024/01/08 14:49:34;;;;;;;9.70;4.13;;;-1.10;99.90;;;;;;4919243;29;20176;-88
2024/01/08 14:52:00;;;;;;;12.00;4.40;;;-1.10;99.90;;;;;;4918764;29;20063;-89
2024/01/08 14:54:26;;;;;;;9.87;3.57;;;-0.30;99.90;;;;;;4917962;29;20488;-87
2024/01/08 14:56:51;;;;;;;10.40;3.67;;;-1.20;99.90;;;;;;4918508;29;20055;-87
2024/01/08 14:59:17;;;;;;;13.50;4.13;;;-1.20;99.90;;;;;;4918973;29;20492;-88
2024/01/08 15:01:42;;;;;;;10.40;3.63;;;-1.20;99.90;;;;;;4917974;29;20055;-88
2024/01/08 15:04:08;;;;;;;11.83;3.80;;;-1.30;99.90;;;;;;4918500;29;20063;-87
2024/01/08 15:06:34;;;;;;;10.93;3.97;;;-1.30;99.90;;;;;;4918193;29;20083;-88
2024/01/08 15:09:00;;;;;;;12.47;3.90;;;-1.30;99.90;;;;;;4917313;29;20044;-87
2024/01/08 15:11:26;;;;;;;10.87;3.80;;;-1.40;99.90;;;;;;4918164;29;20448;-87
2024/01/08 15:13:52;;;;;;;10.03;3.77;;;-1.50;99.90;;;;;;4945994;23;20472;-87
2024/01/08 15:16:17;;;;;;;10.07;3.83;;;-1.40;99.90;;;;;;4927126;29;20048;-87
2024/01/08 15:18:43;;;;;;;10.23;3.90;;;-1.50;99.90;;;;;;4934139;29;20455;-87
2024/01/08 15:21:09;;;;;;;9.90;3.60;;;-1.50;99.90;;;;;;4932764;29;20047;-88
2024/01/08 15:23:37;;;;;;;10.83;3.93;;;-1.60;99.90;;;;;;4934866;29;20044;-87
2024/01/08 15:26:06;;;;;;;9.83;3.77;;;-1.60;99.90;;;;;;4933656;29;20079;-86
2024/01/08 15:28:35;;;;;;;13.57;4.70;;;-1.60;99.90;;;;;;4933480;29;20097;-87
2024/01/08 15:31:03;;;;;;;17.53;5.77;;;-1.60;99.90;;;;;;4933458;29;20048;-87
2024/01/08 15:33:29;;;;;;;13.27;5.80;;;-1.60;99.90;;;;;;4934355;29;20051;-87
2024/01/08 15:35:58;;;;;;;16.80;4.37;;;-1.70;99.90;;;;;;4932910;29;20051;-87
2024/01/08 15:38:26;;;;;;;13.53;6.00;;;-1.70;99.90;;;;;;4934398;29;20416;-87
2024/01/08 15:40:52;;;;;;;11.37;4.23;;;-1.80;99.90;;;;;;4933581;29;20040;-86
2024/01/08 15:43:18;;;;;;;9.60;3.87;;;-1.80;99.90;;;;;;4933440;29;20122;-87
2024/01/08 15:45:44;;;;;;;9.60;3.60;;;-1.80;99.90;;;;;;4933949;29;20052;-86
2024/01/08 15:48:10;;;;;;;11.87;5.53;;;-1.80;99.90;;;;;;4933660;29;20054;-87
2024/01/08 15:50:36;;;;;;;10.53;4.00;;;-1.90;99.90;;;;;;4932926;29;20353;-87
2024/01/08 15:53:03;;;;;;;10.37;3.43;;;-1.80;99.90;;;;;;4933978;29;20054;-87
2024/01/08 15:55:29;;;;;;;9.80;3.57;;;-1.80;99.90;;;;;;4915079;29;20067;-89
2024/01/08 15:57:54;;;;;;;10.80;3.83;;;-1.90;99.90;;;;;;4914512;29;20051;-88
2024/01/08 16:00:20;;;;;;;11.00;4.40;;;-1.90;99.90;;;;;;4914183;29;20127;-87
2024/01/08 16:02:46;;;;;;;8.93;3.80;;;-1.90;99.90;;;;;;4915227;29;20151;-87
2024/01/08 16:05:11;;;;;;;11.83;5.60;;;-1.90;99.90;;;;;;4912792;29;20047;-88
2024/01/08 16:07:37;;;;;;;11.73;4.33;;;-1.90;99.90;;;;;;4917182;29;20055;-88
2024/01/08 16:10:03;;;;;;;9.10;3.80;;;-2.00;99.90;;;;;;4920817;29;20111;-93
2024/01/08 16:12:32;;;;;;;8.87;3.73;;;-1.90;99.90;;;;;;4919367;29;20060;-92
2024/01/08 16:15:20;;;;;;;;;;;;;;;;;;;;;
2024/01/08 16:29:37;;;;;;;11.00;3.83;;;-2.70;99.90;;;;;;4948325;23;20071;-96
2024/01/08 16:32:06;;;;;;;9.53;3.60;;;-2.10;99.90;;;;;;4925311;29;20403;-95
2024/01/08 16:35:28;;;;;;;10.13;3.50;;;-0.50;99.90;;;;;;4943432;29;20488;-94
2024/01/08 16:52:11;;;;;;;10.90;3.90;;;-2.10;99.90;;;;;;5014629;23;20524;-91
2024/01/08 16:55:04;;;;;;;8.90;3.30;;;-1.80;99.90;;;;;;4908458;23;20580;-90
2024/01/08 16:57:33;;;;;;;9.87;3.90;;;-2.20;99.90;;;;;;4905730;29;20054;-89
2024/01/08 17:00:52;;;;;;;9.93;3.73;;;-2.00;99.90;;;;;;5097292;23;20066;31
2024/01/08 17:08:10;;;;;;;9.23;3.53;;;-0.80;99.90;;;;;;4898408;29;20119;-92
2024/01/08 17:10:36;;;;;;;9.60;3.60;;;-0.70;99.90;;;;;;4915914;23;20055;-90
2024/01/08 17:19:25;;;;;;;10.00;4.20;;;-1.10;99.90;;;;;;5053823;23;20048;-93
2024/01/08 17:22:00;;;;;;;10.77;3.77;;;-2.70;99.90;;;;;;4899854;29;20048;-89
2024/01/08 17:24:49;;;;;;;10.87;3.70;;;-1.10;99.90;;;;;;4899488;29;20489;-88
2024/01/08 17:27:24;;;;;;;9.53;3.90;;;-2.20;99.90;;;;;;4890421;29;20134;-91
2024/01/08 17:30:42;;;;;;;9.50;4.00;;;-2.50;99.90;;;;;;4901627;29;20481;-92
2024/01/08 17:33:56;;;;;;;9.53;3.63;;;0.00;99.90;;;;;;4888991;29;20063;-92
2024/01/08 17:36:38;;;;;;;9.20;3.70;;;-2.70;99.90;;;;;;4839495;29;20052;-92
2024/01/08 17:42:49;;;;;;;8.90;3.60;;;-1.00;99.90;;;;;;4900214;29;20063;-91
2024/01/08 17:45:39;;;;;;;10.30;3.90;;;-0.20;99.90;;;;;;4941555;23;20059;-91
2024/01/08 17:52:03;;;;;;;10.23;4.13;;;-1.80;99.90;;;;;;4956524;29;20042;-91
2024/01/08 17:54:35;;;;;;;10.97;4.07;;;-1.00;99.90;;;;;;4938995;29;20141;-91
2024/01/08 17:57:07;;;;;;;9.10;3.40;;;-2.20;99.90;;;;;;4937553;29;20085;-91
2024/01/08 18:00:03;;;;;;;17.23;8.03;;;-2.40;99.90;;;;;;4922895;29;20472;-90
2024/01/08 18:02:41;;;;;;;11.40;4.47;;;-2.80;99.90;;;;;;4929108;23;20579;-91
2024/01/08 18:08:49;;;;;;;9.70;4.23;;;-2.40;99.90;;;;;;4916690;29;20082;-92
2024/01/08 18:11:43;;;;;;;10.20;4.23;;;-2.90;99.90;;;;;;4898463;29;20048;-91
2024/01/08 18:14:34;;;;;;;9.85;3.75;;;-1.30;99.90;;;;;;4900071;29;20056;-92
2024/01/08 18:17:22;;;;;;;11.10;4.10;;;-3.20;99.90;;;;;;4898009;29;20048;-91
2024/01/08 18:20:00;;;;;;;10.17;3.67;;;-1.60;99.90;;;;;;4899751;29;20052;-91
2024/01/08 18:22:33;;;;;;;10.70;4.03;;;-3.00;99.90;;;;;;4899729;29;20518;-91
2024/01/08 18:24:58;;;;;;;12.07;4.47;;;-2.90;99.90;;;;;;4901422;29;20048;-90
2024/01/08 18:31:25;;;;;;;9.30;3.90;;;-1.00;99.90;;;;;;4871268;29;20101;-91
2024/01/08 18:34:50;;;;;;;11.23;4.20;;;-2.90;99.90;;;;;;4861057;29;20053;-90
2024/01/08 18:38:06;;;;;;;9.73;4.03;;;-3.90;99.90;;;;;;4805327;29;20058;-90
2024/01/08 18:40:32;;;;;;;9.90;4.20;;;-2.00;99.90;;;;;;4752402;30;20142;-90
2024/01/08 18:43:18;;;;;;;11.33;4.40;;;-3.10;99.90;;;;;;4753079;30;20147;-90
2024/01/08 18:48:33;;;;;;;10.47;4.50;;;-2.80;99.90;;;;;;4920554;23;20048;-91
2024/01/08 18:50:59;;;;;;;10.97;4.10;;;-3.20;99.90;;;;;;4913246;29;20512;-90